sensor_id;sensor_type;location;lat;lon;timestamp;P1;durP1;ratioP1;P2;durP2;ratioP2
59189;SDS011;50749;51.636;4.948;2024-01-15T00:01:52;2.25;;;1.08;;
59189;SDS011;50749;51.636;4.948;2024-01-15T00:04:21;2.80;;;1.38;;
59189;SDS011;50749;51.636;4.948;2024-01-15T00:06:52;3.10;;;1.08;;
59189;SDS011;50749;51.636;4.948;2024-01-15T00:09:22;2.17;;;1.10;;
59189;SDS011;50749;51.636;4.948;2024-01-15T00:11:50;4.63;;;1.50;;
59189;SDS011;50749;51.636;4.948;2024-01-15T00:14:19;1.60;;;1.00;;
59189;SDS011;50749;51.636;4.948;2024-01-15T00:16:48;2.35;;;1.15;;
59189;SDS011;50749;51.636;4.948;2024-01-15T00:19:17;1.63;;;1.10;;
59189;SDS011;50749;51.636;4.948;2024-01-15T00:21:46;1.90;;;1.00;;
59189;SDS011;50749;51.636;4.948;2024-01-15T00:24:17;2.08;;;1.02;;
59189;SDS011;50749;51.636;4.948;2024-01-15T00:26:46;2.53;;;1.10;;
59189;SDS011;50749;51.636;4.948;2024-01-15T00:29:15;1.95;;;1.20;;
59189;SDS011;50749;51.636;4.948;2024-01-15T00:31:44;2.30;;;0.95;;
59189;SDS011;50749;51.636;4.948;2024-01-15T00:34:12;3.10;;;1.15;;
59189;SDS011;50749;51.636;4.948;2024-01-15T00:36:41;1.75;;;1.10;;
59189;SDS011;50749;51.636;4.948;2024-01-15T00:39:10;1.85;;;1.25;;
59189;SDS011;50749;51.636;4.948;2024-01-15T00:41:41;2.17;;;1.10;;
59189;SDS011;50749;51.636;4.948;2024-01-15T00:44:10;2.47;;;1.05;;
59189;SDS011;50749;51.636;4.948;2024-01-15T00:46:42;2.53;;;0.80;;
59189;SDS011;50749;51.636;4.948;2024-01-15T00:49:12;2.08;;;0.95;;
59189;SDS011;50749;51.636;4.948;2024-01-15T00:51:41;1.35;;;0.85;;
59189;SDS011;50749;51.636;4.948;2024-01-15T00:54:10;1.95;;;1.00;;
59189;SDS011;50749;51.636;4.948;2024-01-15T00:56:41;3.40;;;1.20;;
59189;SDS011;50749;51.636;4.948;2024-01-15T00:59:10;1.55;;;0.98;;
59189;SDS011;50749;51.636;4.948;2024-01-15T01:01:40;1.45;;;0.75;;
59189;SDS011;50749;51.636;4.948;2024-01-15T01:04:09;2.70;;;0.95;;
59189;SDS011;50749;51.636;4.948;2024-01-15T01:06:38;2.03;;;0.98;;
59189;SDS011;50749;51.636;4.948;2024-01-15T01:09:08;1.63;;;0.73;;
59189;SDS011;50749;51.636;4.948;2024-01-15T01:11:37;1.38;;;0.77;;
59189;SDS011;50749;51.636;4.948;2024-01-15T01:14:08;1.67;;;0.75;;
59189;SDS011;50749;51.636;4.948;2024-01-15T01:16:37;1.77;;;0.68;;
59189;SDS011;50749;51.636;4.948;2024-01-15T01:19:06;1.95;;;0.93;;
59189;SDS011;50749;51.636;4.948;2024-01-15T01:21:35;1.48;;;0.70;;
59189;SDS011;50749;51.636;4.948;2024-01-15T01:24:04;1.50;;;0.88;;
59189;SDS011;50749;51.636;4.948;2024-01-15T01:26:33;1.58;;;0.90;;
59189;SDS011;50749;51.636;4.948;2024-01-15T01:29:01;4.25;;;0.77;;
59189;SDS011;50749;51.636;4.948;2024-01-15T01:31:33;1.45;;;0.73;;
59189;SDS011;50749;51.636;4.948;2024-01-15T01:34:01;2.17;;;0.80;;
59189;SDS011;50749;51.636;4.948;2024-01-15T01:36:31;1.50;;;0.93;;
59189;SDS011;50749;51.636;4.948;2024-01-15T01:38:59;2.95;;;0.88;;
59189;SDS011;50749;51.636;4.948;2024-01-15T01:41:28;1.50;;;0.80;;
59189;SDS011;50749;51.636;4.948;2024-01-15T01:43:57;0.77;;;0.47;;
59189;SDS011;50749;51.636;4.948;2024-01-15T01:46:26;2.10;;;0.73;;
59189;SDS011;50749;51.636;4.948;2024-01-15T01:48:58;1.80;;;0.90;;
59189;SDS011;50749;51.636;4.948;2024-01-15T01:51:31;2.08;;;1.00;;
59189;SDS011;50749;51.636;4.948;2024-01-15T01:54:00;1.05;;;0.63;;
59189;SDS011;50749;51.636;4.948;2024-01-15T01:56:30;1.88;;;0.82;;
59189;SDS011;50749;51.636;4.948;2024-01-15T01:58:59;1.77;;;0.98;;
59189;SDS011;50749;51.636;4.948;2024-01-15T02:01:28;1.50;;;0.60;;
59189;SDS011;50749;51.636;4.948;2024-01-15T02:03:59;2.60;;;1.08;;
59189;SDS011;50749;51.636;4.948;2024-01-15T02:06:29;1.45;;;0.77;;
59189;SDS011;50749;51.636;4.948;2024-01-15T02:08:57;1.70;;;0.90;;
59189;SDS011;50749;51.636;4.948;2024-01-15T02:11:27;1.35;;;0.60;;
59189;SDS011;50749;51.636;4.948;2024-01-15T02:13:56;2.80;;;0.77;;
59189;SDS011;50749;51.636;4.948;2024-01-15T02:16:25;1.77;;;0.80;;
59189;SDS011;50749;51.636;4.948;2024-01-15T02:18:54;1.30;;;0.75;;
59189;SDS011;50749;51.636;4.948;2024-01-15T02:21:25;1.00;;;0.45;;
59189;SDS011;50749;51.636;4.948;2024-01-15T02:23:57;0.95;;;0.60;;
59189;SDS011;50749;51.636;4.948;2024-01-15T02:26:26;3.50;;;1.00;;
59189;SDS011;50749;51.636;4.948;2024-01-15T02:28:55;2.90;;;0.60;;
59189;SDS011;50749;51.636;4.948;2024-01-15T02:31:24;2.88;;;0.88;;
59189;SDS011;50749;51.636;4.948;2024-01-15T02:33:52;1.38;;;0.90;;
59189;SDS011;50749;51.636;4.948;2024-01-15T02:36:21;2.08;;;0.60;;
59189;SDS011;50749;51.636;4.948;2024-01-15T02:38:50;1.70;;;0.73;;
59189;SDS011;50749;51.636;4.948;2024-01-15T02:41:21;1.50;;;0.80;;
59189;SDS011;50749;51.636;4.948;2024-01-15T02:43:50;2.45;;;0.65;;
59189;SDS011;50749;51.636;4.948;2024-01-15T02:46:19;1.05;;;0.60;;
59189;SDS011;50749;51.636;4.948;2024-01-15T02:48:47;2.58;;;1.13;;
59189;SDS011;50749;51.636;4.948;2024-01-15T02:51:16;1.27;;;0.63;;
59189;SDS011;50749;51.636;4.948;2024-01-15T02:53:45;3.17;;;0.45;;
59189;SDS011;50749;51.636;4.948;2024-01-15T02:56:13;2.50;;;0.60;;
59189;SDS011;50749;51.636;4.948;2024-01-15T02:58:45;2.83;;;0.63;;
59189;SDS011;50749;51.636;4.948;2024-01-15T03:01:14;1.52;;;0.50;;
59189;SDS011;50749;51.636;4.948;2024-01-15T03:03:42;1.13;;;0.47;;
59189;SDS011;50749;51.636;4.948;2024-01-15T03:06:11;1.33;;;0.80;;
59189;SDS011;50749;51.636;4.948;2024-01-15T03:08:39;2.45;;;0.45;;
59189;SDS011;50749;51.636;4.948;2024-01-15T03:11:08;0.70;;;0.50;;
59189;SDS011;50749;51.636;4.948;2024-01-15T03:13:37;1.27;;;0.63;;
59189;SDS011;50749;51.636;4.948;2024-01-15T03:16:08;1.88;;;0.70;;
59189;SDS011;50749;51.636;4.948;2024-01-15T03:18:38;1.33;;;0.60;;
59189;SDS011;50749;51.636;4.948;2024-01-15T03:21:07;2.15;;;0.57;;
59189;SDS011;50749;51.636;4.948;2024-01-15T03:23:35;0.98;;;0.47;;
59189;SDS011;50749;51.636;4.948;2024-01-15T03:26:04;2.13;;;0.60;;
59189;SDS011;50749;51.636;4.948;2024-01-15T03:28:33;2.60;;;0.65;;
59189;SDS011;50749;51.636;4.948;2024-01-15T03:31:02;0.95;;;0.50;;
59189;SDS011;50749;51.636;4.948;2024-01-15T03:33:34;2.92;;;0.60;;
59189;SDS011;50749;51.636;4.948;2024-01-15T03:36:03;2.03;;;0.70;;
59189;SDS011;50749;51.636;4.948;2024-01-15T03:38:31;1.65;;;0.60;;
59189;SDS011;50749;51.636;4.948;2024-01-15T03:41:00;1.70;;;0.40;;
59189;SDS011;50749;51.636;4.948;2024-01-15T03:43:29;2.28;;;0.82;;
59189;SDS011;50749;51.636;4.948;2024-01-15T03:45:58;1.40;;;0.55;;
59189;SDS011;50749;51.636;4.948;2024-01-15T03:48:27;1.17;;;0.40;;
59189;SDS011;50749;51.636;4.948;2024-01-15T03:50:58;1.85;;;0.52;;
59189;SDS011;50749;51.636;4.948;2024-01-15T03:53:27;1.63;;;0.70;;
59189;SDS011;50749;51.636;4.948;2024-01-15T03:55:56;1.02;;;0.40;;
59189;SDS011;50749;51.636;4.948;2024-01-15T03:58:25;1.35;;;0.43;;
59189;SDS011;50749;51.636;4.948;2024-01-15T04:00:54;1.52;;;0.50;;
59189;SDS011;50749;51.636;4.948;2024-01-15T04:03:22;1.48;;;0.40;;
59189;SDS011;50749;51.636;4.948;2024-01-15T04:05:51;2.10;;;0.57;;
59189;SDS011;50749;51.636;4.948;2024-01-15T04:08:22;2.90;;;0.77;;
59189;SDS011;50749;51.636;4.948;2024-01-15T04:10:51;1.92;;;0.38;;
59189;SDS011;50749;51.636;4.948;2024-01-15T04:13:20;1.42;;;0.50;;
59189;SDS011;50749;51.636;4.948;2024-01-15T04:15:49;1.00;;;0.40;;
59189;SDS011;50749;51.636;4.948;2024-01-15T04:18:17;0.90;;;0.40;;
59189;SDS011;50749;51.636;4.948;2024-01-15T04:20:46;1.02;;;0.40;;
59189;SDS011;50749;51.636;4.948;2024-01-15T04:23:15;1.08;;;0.40;;
59189;SDS011;50749;51.636;4.948;2024-01-15T04:25:46;0.43;;;0.22;;
59189;SDS011;50749;51.636;4.948;2024-01-15T04:28:15;0.47;;;0.40;;
59189;SDS011;50749;51.636;4.948;2024-01-15T04:30:44;0.95;;;0.50;;
59189;SDS011;50749;51.636;4.948;2024-01-15T04:33:12;1.50;;;0.77;;
59189;SDS011;50749;51.636;4.948;2024-01-15T04:35:41;0.90;;;0.47;;
59189;SDS011;50749;51.636;4.948;2024-01-15T04:38:10;0.73;;;0.40;;
59189;SDS011;50749;51.636;4.948;2024-01-15T04:40:39;0.80;;;0.30;;
59189;SDS011;50749;51.636;4.948;2024-01-15T04:43:10;1.13;;;0.50;;
59189;SDS011;50749;51.636;4.948;2024-01-15T04:45:39;1.30;;;0.45;;
59189;SDS011;50749;51.636;4.948;2024-01-15T04:48:07;0.85;;;0.30;;
59189;SDS011;50749;51.636;4.948;2024-01-15T04:50:36;0.88;;;0.30;;
59189;SDS011;50749;51.636;4.948;2024-01-15T04:53:05;0.50;;;0.30;;
59189;SDS011;50749;51.636;4.948;2024-01-15T04:55:34;1.55;;;0.52;;
59189;SDS011;50749;51.636;4.948;2024-01-15T04:58:02;0.50;;;0.30;;
59189;SDS011;50749;51.636;4.948;2024-01-15T05:00:34;1.55;;;0.55;;
59189;SDS011;50749;51.636;4.948;2024-01-15T05:03:03;0.40;;;0.20;;
59189;SDS011;50749;51.636;4.948;2024-01-15T05:05:32;0.52;;;0.30;;
59189;SDS011;50749;51.636;4.948;2024-01-15T05:08:04;0.45;;;0.30;;
59189;SDS011;50749;51.636;4.948;2024-01-15T05:10:33;0.40;;;0.20;;
59189;SDS011;50749;51.636;4.948;2024-01-15T05:13:02;0.32;;;0.28;;
59189;SDS011;50749;51.636;4.948;2024-01-15T05:15:34;1.33;;;0.35;;
59189;SDS011;50749;51.636;4.948;2024-01-15T05:18:02;1.85;;;0.40;;
59189;SDS011;50749;51.636;4.948;2024-01-15T05:20:32;0.52;;;0.32;;
59189;SDS011;50749;51.636;4.948;2024-01-15T05:23:00;2.42;;;0.30;;
59189;SDS011;50749;51.636;4.948;2024-01-15T05:25:29;0.65;;;0.30;;
59189;SDS011;50749;51.636;4.948;2024-01-15T05:27:58;0.45;;;0.20;;
59189;SDS011;50749;51.636;4.948;2024-01-15T05:30:27;0.70;;;0.35;;
59189;SDS011;50749;51.636;4.948;2024-01-15T05:32:58;0.93;;;0.50;;
59189;SDS011;50749;51.636;4.948;2024-01-15T05:35:28;0.70;;;0.22;;
59189;SDS011;50749;51.636;4.948;2024-01-15T05:37:57;1.00;;;0.40;;
59189;SDS011;50749;51.636;4.948;2024-01-15T05:40:26;3.53;;;0.30;;
59189;SDS011;50749;51.636;4.948;2024-01-15T05:42:54;1.85;;;0.50;;
59189;SDS011;50749;51.636;4.948;2024-01-15T05:45:23;0.90;;;0.50;;
59189;SDS011;50749;51.636;4.948;2024-01-15T05:47:52;0.13;;;0.10;;
59189;SDS011;50749;51.636;4.948;2024-01-15T05:50:24;1.40;;;0.40;;
59189;SDS011;50749;51.636;4.948;2024-01-15T05:52:52;1.40;;;0.20;;
59189;SDS011;50749;51.636;4.948;2024-01-15T05:55:21;0.57;;;0.30;;
59189;SDS011;50749;51.636;4.948;2024-01-15T05:57:50;0.55;;;0.50;;
59189;SDS011;50749;51.636;4.948;2024-01-15T06:00:19;1.80;;;0.40;;
59189;SDS011;50749;51.636;4.948;2024-01-15T06:02:47;0.80;;;0.32;;
59189;SDS011;50749;51.636;4.948;2024-01-15T06:05:16;0.13;;;0.13;;
59189;SDS011;50749;51.636;4.948;2024-01-15T06:07:47;2.05;;;0.40;;
59189;SDS011;50749;51.636;4.948;2024-01-15T06:10:16;1.15;;;0.40;;
59189;SDS011;50749;51.636;4.948;2024-01-15T06:12:45;0.77;;;0.30;;
59189;SDS011;50749;51.636;4.948;2024-01-15T06:15:14;0.45;;;0.20;;
59189;SDS011;50749;51.636;4.948;2024-01-15T06:17:42;0.80;;;0.30;;
59189;SDS011;50749;51.636;4.948;2024-01-15T06:20:12;0.47;;;0.20;;
59189;SDS011;50749;51.636;4.948;2024-01-15T06:22:41;0.68;;;0.22;;
59189;SDS011;50749;51.636;4.948;2024-01-15T06:25:12;1.85;;;0.28;;
59189;SDS011;50749;51.636;4.948;2024-01-15T06:27:41;1.13;;;0.57;;
59189;SDS011;50749;51.636;4.948;2024-01-15T06:30:10;1.48;;;0.30;;
59189;SDS011;50749;51.636;4.948;2024-01-15T06:32:39;0.40;;;0.25;;
59189;SDS011;50749;51.636;4.948;2024-01-15T06:35:08;0.63;;;0.10;;
59189;SDS011;50749;51.636;4.948;2024-01-15T06:37:37;3.95;;;0.30;;
59189;SDS011;50749;51.636;4.948;2024-01-15T06:40:07;1.92;;;0.30;;
59189;SDS011;50749;51.636;4.948;2024-01-15T06:42:39;2.72;;;0.43;;
59189;SDS011;50749;51.636;4.948;2024-01-15T06:45:08;1.27;;;0.40;;
59189;SDS011;50749;51.636;4.948;2024-01-15T06:47:37;4.63;;;0.70;;
59189;SDS011;50749;51.636;4.948;2024-01-15T06:50:07;1.33;;;0.45;;
59189;SDS011;50749;51.636;4.948;2024-01-15T06:52:36;5.38;;;0.60;;
59189;SDS011;50749;51.636;4.948;2024-01-15T06:55:06;3.17;;;0.47;;
59189;SDS011;50749;51.636;4.948;2024-01-15T06:57:35;1.33;;;0.40;;
59189;SDS011;50749;51.636;4.948;2024-01-15T07:00:07;1.42;;;0.38;;
59189;SDS011;50749;51.636;4.948;2024-01-15T07:02:36;0.20;;;0.20;;
59189;SDS011;50749;51.636;4.948;2024-01-15T07:05:05;1.58;;;0.40;;
59189;SDS011;50749;51.636;4.948;2024-01-15T07:07:35;1.85;;;0.30;;
59189;SDS011;50749;51.636;4.948;2024-01-15T07:10:04;2.85;;;0.40;;
59189;SDS011;50749;51.636;4.948;2024-01-15T07:12:34;2.47;;;0.30;;
59189;SDS011;50749;51.636;4.948;2024-01-15T07:15:03;0.80;;;0.40;;
59189;SDS011;50749;51.636;4.948;2024-01-15T07:17:35;4.25;;;0.50;;
59189;SDS011;50749;51.636;4.948;2024-01-15T07:20:05;1.45;;;0.40;;
59189;SDS011;50749;51.636;4.948;2024-01-15T07:22:35;1.38;;;0.30;;
59189;SDS011;50749;51.636;4.948;2024-01-15T07:25:05;2.72;;;0.45;;
59189;SDS011;50749;51.636;4.948;2024-01-15T07:27:34;0.52;;;0.20;;
59189;SDS011;50749;51.636;4.948;2024-01-15T07:30:03;1.02;;;0.30;;
59189;SDS011;50749;51.636;4.948;2024-01-15T07:32:35;6.07;;;0.70;;
59189;SDS011;50749;51.636;4.948;2024-01-15T07:35:04;0.45;;;0.32;;
59189;SDS011;50749;51.636;4.948;2024-01-15T07:37:33;0.68;;;0.20;;
59189;SDS011;50749;51.636;4.948;2024-01-15T07:40:02;1.88;;;0.45;;
59189;SDS011;50749;51.636;4.948;2024-01-15T07:42:33;0.45;;;0.20;;
59189;SDS011;50749;51.636;4.948;2024-01-15T07:45:04;2.22;;;0.30;;
59189;SDS011;50749;51.636;4.948;2024-01-15T07:47:36;1.02;;;0.30;;
59189;SDS011;50749;51.636;4.948;2024-01-15T07:50:05;0.10;;;0.10;;
59189;SDS011;50749;51.636;4.948;2024-01-15T07:52:34;1.17;;;0.30;;
59189;SDS011;50749;51.636;4.948;2024-01-15T07:55:03;0.85;;;0.30;;
59189;SDS011;50749;51.636;4.948;2024-01-15T07:57:32;1.15;;;0.38;;
59189;SDS011;50749;51.636;4.948;2024-01-15T08:00:01;1.80;;;0.20;;
59189;SDS011;50749;51.636;4.948;2024-01-15T08:02:31;2.47;;;0.32;;
59189;SDS011;50749;51.636;4.948;2024-01-15T08:05:03;0.30;;;0.22;;
59189;SDS011;50749;51.636;4.948;2024-01-15T08:07:32;0.57;;;0.20;;
59189;SDS011;50749;51.636;4.948;2024-01-15T08:10:01;1.55;;;0.20;;
59189;SDS011;50749;51.636;4.948;2024-01-15T08:12:29;1.98;;;0.32;;
59189;SDS011;50749;51.636;4.948;2024-01-15T08:14:58;0.98;;;0.40;;
59189;SDS011;50749;51.636;4.948;2024-01-15T08:17:27;0.60;;;0.25;;
59189;SDS011;50749;51.636;4.948;2024-01-15T08:19:56;0.57;;;0.20;;
59189;SDS011;50749;51.636;4.948;2024-01-15T08:22:28;0.32;;;0.30;;
59189;SDS011;50749;51.636;4.948;2024-01-15T08:24:57;0.95;;;0.35;;
59189;SDS011;50749;51.636;4.948;2024-01-15T08:27:25;2.17;;;0.40;;
59189;SDS011;50749;51.636;4.948;2024-01-15T08:29:54;1.05;;;0.30;;
59189;SDS011;50749;51.636;4.948;2024-01-15T08:32:23;0.47;;;0.30;;
59189;SDS011;50749;51.636;4.948;2024-01-15T08:34:52;1.20;;;0.30;;
59189;SDS011;50749;51.636;4.948;2024-01-15T08:37:20;1.52;;;0.40;;
59189;SDS011;50749;51.636;4.948;2024-01-15T08:39:52;0.40;;;0.20;;
59189;SDS011;50749;51.636;4.948;2024-01-15T08:42:20;0.13;;;0.10;;
59189;SDS011;50749;51.636;4.948;2024-01-15T08:44:50;0.13;;;0.13;;
59189;SDS011;50749;51.636;4.948;2024-01-15T08:47:18;0.30;;;0.20;;
59189;SDS011;50749;51.636;4.948;2024-01-15T08:49:48;0.70;;;0.30;;
59189;SDS011;50749;51.636;4.948;2024-01-15T08:52:16;1.45;;;0.40;;
59189;SDS011;50749;51.636;4.948;2024-01-15T08:54:45;1.35;;;0.38;;
59189;SDS011;50749;51.636;4.948;2024-01-15T08:57:17;2.80;;;0.70;;
59189;SDS011;50749;51.636;4.948;2024-01-15T08:59:46;0.22;;;0.20;;
59189;SDS011;50749;51.636;4.948;2024-01-15T09:02:14;0.52;;;0.30;;
59189;SDS011;50749;51.636;4.948;2024-01-15T09:04:43;1.63;;;0.30;;
59189;SDS011;50749;51.636;4.948;2024-01-15T09:07:12;0.75;;;0.25;;
59189;SDS011;50749;51.636;4.948;2024-01-15T09:09:40;0.90;;;0.35;;
59189;SDS011;50749;51.636;4.948;2024-01-15T09:12:10;1.10;;;0.30;;
59189;SDS011;50749;51.636;4.948;2024-01-15T09:14:43;0.95;;;0.20;;
59189;SDS011;50749;51.636;4.948;2024-01-15T09:17:12;0.52;;;0.30;;
59189;SDS011;50749;51.636;4.948;2024-01-15T09:19:41;2.30;;;0.50;;
59189;SDS011;50749;51.636;4.948;2024-01-15T09:22:10;0.70;;;0.35;;
59189;SDS011;50749;51.636;4.948;2024-01-15T09:24:40;1.58;;;0.40;;
59189;SDS011;50749;51.636;4.948;2024-01-15T09:27:09;1.35;;;0.38;;
59189;SDS011;50749;51.636;4.948;2024-01-15T09:29:37;2.60;;;0.50;;
59189;SDS011;50749;51.636;4.948;2024-01-15T09:32:10;0.82;;;0.30;;
59189;SDS011;50749;51.636;4.948;2024-01-15T09:34:39;1.60;;;0.73;;
59189;SDS011;50749;51.636;4.948;2024-01-15T09:37:07;0.85;;;0.30;;
59189;SDS011;50749;51.636;4.948;2024-01-15T09:39:36;1.25;;;0.40;;
59189;SDS011;50749;51.636;4.948;2024-01-15T09:42:05;0.55;;;0.20;;
59189;SDS011;50749;51.636;4.948;2024-01-15T09:44:34;1.00;;;0.40;;
59189;SDS011;50749;51.636;4.948;2024-01-15T09:47:03;0.55;;;0.28;;
59189;SDS011;50749;51.636;4.948;2024-01-15T09:49:36;0.45;;;0.20;;
59189;SDS011;50749;51.636;4.948;2024-01-15T09:52:06;1.10;;;0.40;;
59189;SDS011;50749;51.636;4.948;2024-01-15T09:54:35;0.40;;;0.25;;
59189;SDS011;50749;51.636;4.948;2024-01-15T09:57:05;0.55;;;0.30;;
59189;SDS011;50749;51.636;4.948;2024-01-15T09:59:34;0.75;;;0.32;;
59189;SDS011;50749;51.636;4.948;2024-01-15T10:02:04;1.15;;;0.38;;
59189;SDS011;50749;51.636;4.948;2024-01-15T10:04:37;5.18;;;0.63;;
59189;SDS011;50749;51.636;4.948;2024-01-15T10:07:06;0.93;;;0.43;;
59189;SDS011;50749;51.636;4.948;2024-01-15T10:09:37;1.92;;;0.52;;
59189;SDS011;50749;51.636;4.948;2024-01-15T10:12:06;1.48;;;0.47;;
59189;SDS011;50749;51.636;4.948;2024-01-15T10:14:35;0.15;;;0.10;;
59189;SDS011;50749;51.636;4.948;2024-01-15T10:17:11;1.52;;;0.35;;
59189;SDS011;50749;51.636;4.948;2024-01-15T10:19:45;1.20;;;0.40;;
59189;SDS011;50749;51.636;4.948;2024-01-15T10:22:14;1.10;;;0.47;;
59189;SDS011;50749;51.636;4.948;2024-01-15T10:24:43;0.98;;;0.35;;
59189;SDS011;50749;51.636;4.948;2024-01-15T10:27:12;0.65;;;0.47;;
59189;SDS011;50749;51.636;4.948;2024-01-15T10:29:41;1.15;;;0.30;;
59189;SDS011;50749;51.636;4.948;2024-01-15T10:32:10;2.30;;;0.47;;
59189;SDS011;50749;51.636;4.948;2024-01-15T10:34:40;0.73;;;0.30;;
59189;SDS011;50749;51.636;4.948;2024-01-15T10:37:12;0.90;;;0.35;;
59189;SDS011;50749;51.636;4.948;2024-01-15T10:39:40;0.70;;;0.20;;
59189;SDS011;50749;51.636;4.948;2024-01-15T10:42:09;1.08;;;0.70;;
59189;SDS011;50749;51.636;4.948;2024-01-15T10:44:38;0.93;;;0.47;;
59189;SDS011;50749;51.636;4.948;2024-01-15T10:47:09;0.95;;;0.40;;
59189;SDS011;50749;51.636;4.948;2024-01-15T10:49:37;0.80;;;0.50;;
59189;SDS011;50749;51.636;4.948;2024-01-15T10:52:07;0.35;;;0.20;;
59189;SDS011;50749;51.636;4.948;2024-01-15T10:54:38;1.50;;;0.47;;
59189;SDS011;50749;51.636;4.948;2024-01-15T10:57:07;0.40;;;0.30;;
59189;SDS011;50749;51.636;4.948;2024-01-15T10:59:37;1.00;;;0.30;;
59189;SDS011;50749;51.636;4.948;2024-01-15T11:02:05;0.88;;;0.45;;
59189;SDS011;50749;51.636;4.948;2024-01-15T11:04:35;2.40;;;0.50;;
59189;SDS011;50749;51.636;4.948;2024-01-15T11:07:05;0.68;;;0.30;;
59189;SDS011;50749;51.636;4.948;2024-01-15T11:09:39;1.92;;;0.40;;
59189;SDS011;50749;51.636;4.948;2024-01-15T11:12:09;0.70;;;0.30;;
59189;SDS011;50749;51.636;4.948;2024-01-15T11:14:39;1.10;;;0.70;;
59189;SDS011;50749;51.636;4.948;2024-01-15T11:17:09;1.45;;;0.20;;
59189;SDS011;50749;51.636;4.948;2024-01-15T11:19:38;0.28;;;0.28;;
59189;SDS011;50749;51.636;4.948;2024-01-15T11:25:15;0.98;;;0.30;;
59189;SDS011;50749;51.636;4.948;2024-01-15T11:27:47;3.58;;;0.60;;
59189;SDS011;50749;51.636;4.948;2024-01-15T11:30:18;0.90;;;0.30;;
59189;SDS011;50749;51.636;4.948;2024-01-15T11:32:48;1.33;;;0.40;;
59189;SDS011;50749;51.636;4.948;2024-01-15T11:35:17;0.95;;;0.40;;
59189;SDS011;50749;51.636;4.948;2024-01-15T11:37:58;0.75;;;0.40;;
59189;SDS011;50749;51.636;4.948;2024-01-15T11:40:39;0.60;;;0.35;;
59189;SDS011;50749;51.636;4.948;2024-01-15T11:43:12;1.15;;;0.40;;
59189;SDS011;50749;51.636;4.948;2024-01-15T11:45:45;3.97;;;0.80;;
59189;SDS011;50749;51.636;4.948;2024-01-15T11:48:20;0.63;;;0.17;;
59189;SDS011;50749;51.636;4.948;2024-01-15T11:50:52;0.88;;;0.40;;
59189;SDS011;50749;51.636;4.948;2024-01-15T11:53:22;0.57;;;0.25;;
59189;SDS011;50749;51.636;4.948;2024-01-15T11:55:59;2.05;;;0.30;;
59189;SDS011;50749;51.636;4.948;2024-01-15T11:58:31;0.95;;;0.30;;
59189;SDS011;50749;51.636;4.948;2024-01-15T12:01:01;0.80;;;0.30;;
59189;SDS011;50749;51.636;4.948;2024-01-15T12:03:31;0.60;;;0.28;;
59189;SDS011;50749;51.636;4.948;2024-01-15T12:06:00;0.68;;;0.30;;
59189;SDS011;50749;51.636;4.948;2024-01-15T12:08:29;0.77;;;0.50;;
59189;SDS011;50749;51.636;4.948;2024-01-15T12:11:00;0.20;;;0.20;;
59189;SDS011;50749;51.636;4.948;2024-01-15T12:13:35;1.38;;;0.38;;
59189;SDS011;50749;51.636;4.948;2024-01-15T12:16:04;0.95;;;0.55;;
59189;SDS011;50749;51.636;4.948;2024-01-15T12:18:32;1.02;;;0.32;;
59189;SDS011;50749;51.636;4.948;2024-01-15T12:21:01;0.93;;;0.30;;
59189;SDS011;50749;51.636;4.948;2024-01-15T12:23:33;1.65;;;0.80;;
59189;SDS011;50749;51.636;4.948;2024-01-15T12:26:04;0.80;;;0.20;;
59189;SDS011;50749;51.636;4.948;2024-01-15T12:28:33;0.77;;;0.30;;
59189;SDS011;50749;51.636;4.948;2024-01-15T12:31:02;0.65;;;0.30;;
59189;SDS011;50749;51.636;4.948;2024-01-15T12:33:32;0.13;;;0.13;;
59189;SDS011;50749;51.636;4.948;2024-01-15T12:36:01;2.15;;;1.20;;
59189;SDS011;50749;51.636;4.948;2024-01-15T12:38:32;0.82;;;0.45;;
59189;SDS011;50749;51.636;4.948;2024-01-15T12:41:00;0.90;;;0.20;;
59189;SDS011;50749;51.636;4.948;2024-01-15T12:43:32;1.17;;;0.32;;
59189;SDS011;50749;51.636;4.948;2024-01-15T12:46:00;0.50;;;0.30;;
59189;SDS011;50749;51.636;4.948;2024-01-15T12:48:30;0.45;;;0.22;;
59189;SDS011;50749;51.636;4.948;2024-01-15T12:50:58;0.52;;;0.30;;
59189;SDS011;50749;51.636;4.948;2024-01-15T12:53:27;1.30;;;0.52;;
59189;SDS011;50749;51.636;4.948;2024-01-15T12:55:56;1.20;;;0.40;;
59189;SDS011;50749;51.636;4.948;2024-01-15T12:58:25;0.47;;;0.28;;
59189;SDS011;50749;51.636;4.948;2024-01-15T13:00:56;0.77;;;0.40;;
59189;SDS011;50749;51.636;4.948;2024-01-15T13:03:25;1.13;;;0.35;;
59189;SDS011;50749;51.636;4.948;2024-01-15T13:05:53;0.55;;;0.30;;
59189;SDS011;50749;51.636;4.948;2024-01-15T13:08:22;0.50;;;0.32;;
59189;SDS011;50749;51.636;4.948;2024-01-15T13:10:53;0.43;;;0.30;;
59189;SDS011;50749;51.636;4.948;2024-01-15T13:13:23;1.45;;;0.28;;
59189;SDS011;50749;51.636;4.948;2024-01-15T13:15:52;2.00;;;0.32;;
59189;SDS011;50749;51.636;4.948;2024-01-15T13:18:24;1.67;;;0.63;;
59189;SDS011;50749;51.636;4.948;2024-01-15T13:20:52;0.50;;;0.20;;
59189;SDS011;50749;51.636;4.948;2024-01-15T13:23:21;1.10;;;0.30;;
59189;SDS011;50749;51.636;4.948;2024-01-15T13:25:50;1.17;;;0.47;;
59189;SDS011;50749;51.636;4.948;2024-01-15T13:28:19;0.95;;;0.40;;
59189;SDS011;50749;51.636;4.948;2024-01-15T13:30:47;1.70;;;0.20;;
59189;SDS011;50749;51.636;4.948;2024-01-15T13:33:16;1.25;;;0.52;;
59189;SDS011;50749;51.636;4.948;2024-01-15T13:35:48;0.60;;;0.30;;
59189;SDS011;50749;51.636;4.948;2024-01-15T13:38:17;0.28;;;0.20;;
59189;SDS011;50749;51.636;4.948;2024-01-15T13:40:45;0.17;;;0.17;;
59189;SDS011;50749;51.636;4.948;2024-01-15T13:43:14;0.43;;;0.17;;
59189;SDS011;50749;51.636;4.948;2024-01-15T13:45:44;0.40;;;0.25;;
59189;SDS011;50749;51.636;4.948;2024-01-15T13:48:13;0.20;;;0.20;;
59189;SDS011;50749;51.636;4.948;2024-01-15T13:50:43;1.13;;;0.25;;
59189;SDS011;50749;51.636;4.948;2024-01-15T13:53:15;0.82;;;0.30;;
59189;SDS011;50749;51.636;4.948;2024-01-15T13:55:44;1.20;;;0.40;;
59189;SDS011;50749;51.636;4.948;2024-01-15T13:58:13;0.73;;;0.20;;
59189;SDS011;50749;51.636;4.948;2024-01-15T14:00:43;0.80;;;0.40;;
59189;SDS011;50749;51.636;4.948;2024-01-15T14:03:12;0.80;;;0.20;;
59189;SDS011;50749;51.636;4.948;2024-01-15T14:05:41;0.17;;;0.17;;
59189;SDS011;50749;51.636;4.948;2024-01-15T14:08:10;0.70;;;0.30;;
59189;SDS011;50749;51.636;4.948;2024-01-15T14:10:42;0.57;;;0.30;;
59189;SDS011;50749;51.636;4.948;2024-01-15T14:13:11;0.90;;;0.30;;
59189;SDS011;50749;51.636;4.948;2024-01-15T14:15:39;0.68;;;0.20;;
59189;SDS011;50749;51.636;4.948;2024-01-15T14:18:08;0.52;;;0.28;;
59189;SDS011;50749;51.636;4.948;2024-01-15T14:20:37;0.40;;;0.30;;
59189;SDS011;50749;51.636;4.948;2024-01-15T14:23:06;0.40;;;0.30;;
59189;SDS011;50749;51.636;4.948;2024-01-15T14:25:35;1.48;;;0.30;;
59189;SDS011;50749;51.636;4.948;2024-01-15T14:28:07;0.55;;;0.20;;
59189;SDS011;50749;51.636;4.948;2024-01-15T14:30:36;4.28;;;0.40;;
59189;SDS011;50749;51.636;4.948;2024-01-15T14:33:05;1.20;;;0.35;;
59189;SDS011;50749;51.636;4.948;2024-01-15T14:35:33;1.35;;;0.40;;
59189;SDS011;50749;51.636;4.948;2024-01-15T14:38:02;1.25;;;0.30;;
59189;SDS011;50749;51.636;4.948;2024-01-15T14:40:33;1.40;;;0.40;;
59189;SDS011;50749;51.636;4.948;2024-01-15T14:43:03;0.73;;;0.30;;
59189;SDS011;50749;51.636;4.948;2024-01-15T14:45:36;0.77;;;0.32;;
59189;SDS011;50749;51.636;4.948;2024-01-15T14:48:05;1.35;;;0.30;;
59189;SDS011;50749;51.636;4.948;2024-01-15T14:50:33;0.75;;;0.28;;
59189;SDS011;50749;51.636;4.948;2024-01-15T14:53:02;0.28;;;0.20;;
59189;SDS011;50749;51.636;4.948;2024-01-15T14:55:31;1.35;;;0.20;;
59189;SDS011;50749;51.636;4.948;2024-01-15T14:58:01;0.63;;;0.30;;
59189;SDS011;50749;51.636;4.948;2024-01-15T15:00:30;0.63;;;0.20;;
59189;SDS011;50749;51.636;4.948;2024-01-15T15:03:02;0.60;;;0.30;;
59189;SDS011;50749;51.636;4.948;2024-01-15T15:05:31;0.47;;;0.32;;